General WM J Fox Airfield
KWJF : now visible

Airfield :











YOU CAN JOIN US ON...

 
LOGIN :

Register | Disclaimer

   EN    FR    IT 

 









Legend :    VFR   Marginal VFR   IFR   Intensive IFR   Very Intensive IFR
Visi :
Ceiling :
>= 8 km
>= 3000ft
5 to 8 km
1000 to 3000 ft
1500m to 5 km
500 to 1000 ft
800 to 1500m
200 to 500 ft
< 800m
< 200 ft
Symbols :   Thunderstorms  Fog  Heavy snow  Heavy precipitations  Wind > 20 kt







- Airport Elevation : 2351 ft


KWJF - General WM J Fox

CURRENT METAR :
  • 202056Z 23014G20KT 10SM CLR 15/04 A2998 RMK AO2 SLP152 T01500039 58017

EXPIRED METARs :
  • 201956Z 23014KT 10SM FEW120 13/04 A3001 RMK AO2 SLP162 T01330044
  • 201856Z 24012KT 10SM CLR 14/04 A3002 RMK AO2 SLP164 T01390044

TAF KWJF
Valid from the 20 at 20:00 until the 21 at 18:00 UTC


201932Z 2020/2118 24012KT P6SM BKN060
FM210300 24015G20KT P6SM VCSH BKN060
KZLA FIR / North America



MET'MAP, your aeronautical weather chart ! - Copyright ORBIFLY December 2007 - Disclaimer

ORBIFLY MET'MAP TEAM :

Programming & Development : Alexandra Zaïnal
Concept & Development : Baudouin d'Aumeries
Co-Development & Prog : Marc-Olivier Méhu
Technical & hardware support : Manuel Goepfert

Contact : metmap@orbifly.com




SOURCES & CREDITS :

   NOAA       Earth
Advisory